Mingo, West Virginia
Current Conditions -  °F | °C
As of 12:43 PM on Wednesday 26 Nov 2014 (Local Time) from KEKN Reporting Station
Light Snow Light Snow  
Wind Chill:   Ceiling: 800
Heat Index:   Visibility: 1mi
Dew Point:   Wind: 0mph
Humidity: 100%   Direction: NA
Pressure: 29.96"   Gusts: NA
Location:  38.5201°N, 80.0382°W
Report Text: KEKN 261743Z AUTO 00000KT 1SM -SN BR SCT004 BKN008 OVC014 01/01 A2996 RMK AO2 P0005 T00060006 TSNO
Loading
Personal Weather Stations






























Interactive Weather Map New forecast layout! Learn more

10-Day Weather Forecast

Advertisements
Track Severe Weather on mobile